createdAt,value
2018-04-09T00:01:21.998Z,1008.53
2018-04-09T00:02:44.119Z,1008.53
2018-04-09T00:04:05.921Z,1008.51
2018-04-09T00:05:28.007Z,1008.48
2018-04-09T00:06:49.551Z,1008.48
2018-04-09T00:08:11.360Z,1008.46
2018-04-09T00:09:33.429Z,1008.49
2018-04-09T00:10:55.236Z,1008.5
2018-04-09T00:12:17.299Z,1008.52
2018-04-09T00:13:39.362Z,1008.52
2018-04-09T00:15:00.642Z,1008.49
2018-04-09T00:16:21.920Z,1008.5
2018-04-09T00:17:43.960Z,1008.48
2018-04-09T00:19:05.770Z,1008.48
2018-04-09T00:20:27.560Z,1008.43
2018-04-09T00:21:49.362Z,1008.45
2018-04-09T00:23:11.173Z,1008.43
2018-04-09T00:24:33.239Z,1008.42
2018-04-09T00:25:55.331Z,1008.42
2018-04-09T00:27:17.142Z,1008.39
2018-04-09T00:28:39.197Z,1008.43
2018-04-09T00:30:01.000Z,1008.43
2018-04-09T00:31:23.067Z,1008.4
2018-04-09T00:32:44.859Z,1008.39
2018-04-09T00:34:06.646Z,1008.43
2018-04-09T00:35:28.182Z,1008.4
2018-04-09T00:36:50.265Z,1008.39
2018-04-09T00:38:12.324Z,1008.34
2018-04-09T00:39:34.393Z,1008.4
2018-04-09T00:40:56.444Z,1008.35
2018-04-09T00:42:18.504Z,1008.36
2018-04-09T00:43:40.302Z,1008.37
2018-04-09T00:45:02.118Z,1008.35
2018-04-09T00:46:23.923Z,1008.32
2018-04-09T00:47:45.723Z,1008.28
2018-04-09T00:49:07.502Z,1008.29
2018-04-09T00:50:29.289Z,1008.21
2018-04-09T00:51:50.814Z,1008.2
2018-04-09T00:53:12.619Z,1008.17
2018-04-09T00:54:33.905Z,1008.16
2018-04-09T00:55:55.428Z,1008.12
2018-04-09T00:57:17.218Z,1008.17
2018-04-09T00:58:39.256Z,1008.16
2018-04-09T01:00:01.067Z,1008.16
2018-04-09T01:01:22.876Z,1008.17
2018-04-09T01:02:44.413Z,1008.16
2018-04-09T01:04:06.212Z,1008.17
2018-04-09T01:05:28.277Z,1008.17
2018-04-09T01:06:50.349Z,1008.15
2018-04-09T01:08:12.422Z,1008.15
2018-04-09T01:09:34.480Z,1008.12
2018-04-09T01:10:56.290Z,1008.07
2018-04-09T01:12:18.082Z,1008.07
2018-04-09T01:13:39.620Z,1008
2018-04-09T01:15:01.164Z,1008
2018-04-09T01:16:22.964Z,1008.02
2018-04-09T01:17:44.501Z,1007.97
2018-04-09T01:19:06.318Z,1007.95
2018-04-09T01:20:27.851Z,1007.99
2018-04-09T01:21:49.636Z,1007.97
2018-04-09T01:23:11.423Z,1007.95
2018-04-09T01:24:32.962Z,1007.99
2018-04-09T01:25:54.748Z,1007.93
2018-04-09T01:27:16.285Z,1007.93
2018-04-09T01:28:38.084Z,1007.92
2018-04-09T01:29:59.629Z,1007.96
2018-04-09T01:31:21.713Z,1007.95
2018-04-09T01:32:43.795Z,1007.93
2018-04-09T01:34:05.852Z,1007.94
2018-04-09T01:35:27.659Z,1007.95
2018-04-09T01:36:49.716Z,1007.91
2018-04-09T01:38:11.517Z,1007.9
2018-04-09T01:39:33.309Z,1007.9
2018-04-09T01:40:54.573Z,1007.91
2018-04-09T01:42:16.373Z,1007.95
2018-04-09T01:43:38.415Z,1007.9
2018-04-09T01:45:00.231Z,1007.88
2018-04-09T01:46:22.292Z,1007.88
2018-04-09T01:47:44.342Z,1007.91
2018-04-09T01:49:06.389Z,1007.96
2018-04-09T01:50:28.437Z,1007.91
2018-04-09T01:51:50.237Z,1007.95
2018-04-09T01:53:12.287Z,1007.89
2018-04-09T01:54:34.341Z,1007.89
2018-04-09T01:55:55.890Z,1007.9
2018-04-09T01:57:17.690Z,1007.88
2018-04-09T01:58:39.232Z,1007.86
2018-04-09T02:00:00.759Z,1007.9
2018-04-09T02:01:22.558Z,1007.9
2018-04-09T02:02:44.364Z,1007.88
2018-04-09T02:04:05.909Z,1007.89
2018-04-09T02:05:27.983Z,1007.87
2018-04-09T02:06:49.505Z,1007.85
2018-04-09T02:08:11.564Z,1007.85
2018-04-09T02:09:33.358Z,1007.85
2018-04-09T02:10:55.416Z,1007.82
2018-04-09T02:12:16.954Z,1007.77
2018-04-09T02:13:38.508Z,1007.74
2018-04-09T02:15:00.548Z,1007.75
2018-04-09T02:16:22.610Z,1007.71
2018-04-09T02:17:44.405Z,1007.67
2018-04-09T02:19:06.443Z,1007.68
2018-04-09T02:20:28.247Z,1007.72
2018-04-09T02:21:50.303Z,1007.66
2018-04-09T02:23:11.843Z,1007.71
2018-04-09T02:24:33.391Z,1007.68
2018-04-09T02:25:55.189Z,1007.7
2018-04-09T02:27:16.985Z,1007.66
2018-04-09T02:28:38.734Z,1007.65
2018-04-09T02:30:00.538Z,1007.64
2018-04-09T02:31:22.076Z,1007.61
2018-04-09T02:32:43.887Z,1007.61
2018-04-09T02:34:05.434Z,1007.65
2018-04-09T02:35:27.504Z,1007.63
2018-04-09T02:36:49.314Z,1007.64
2018-04-09T02:38:11.381Z,1007.7
2018-04-09T02:39:33.490Z,1007.61
2018-04-09T02:40:55.282Z,1007.6
2018-04-09T02:42:17.354Z,1007.61
2018-04-09T02:43:39.419Z,1007.53
2018-04-09T02:45:01.233Z,1007.56
2018-04-09T02:46:23.283Z,1007.58
2018-04-09T02:47:44.826Z,1007.58
2018-04-09T02:49:06.901Z,1007.55
2018-04-09T02:50:28.694Z,1007.53
2018-04-09T02:51:50.252Z,1007.57
2018-04-09T02:53:12.060Z,1007.59
2018-04-09T02:54:34.136Z,1007.59
2018-04-09T02:55:56.140Z,1007.6
2018-04-09T02:57:17.151Z,1007.61
2018-04-09T02:58:38.693Z,1007.63
2018-04-09T03:00:00.755Z,1007.61
2018-04-09T03:01:22.812Z,1007.62
2018-04-09T03:02:44.096Z,1007.62
2018-04-09T03:04:06.153Z,1007.58
2018-04-09T03:05:27.169Z,1007.61
2018-04-09T03:06:48.447Z,1007.61
2018-04-09T03:08:10.263Z,1007.61
2018-04-09T03:09:32.346Z,1007.57
2018-04-09T03:10:53.634Z,1007.61
2018-04-09T03:12:15.435Z,1007.58
2018-04-09T03:13:37.246Z,1007.58
2018-04-09T03:14:59.298Z,1007.58
2018-04-09T03:16:21.372Z,1007.6
2018-04-09T03:17:43.182Z,1007.56
2018-04-09T03:19:05.245Z,1007.58
2018-04-09T03:20:26.512Z,1007.61
2018-04-09T03:21:48.299Z,1007.58
2018-04-09T03:23:09.307Z,1007.58
2018-04-09T03:24:31.102Z,1007.59
2018-04-09T03:25:53.157Z,1007.6
2018-04-09T03:27:14.685Z,1007.64
2018-04-09T03:28:36.493Z,1007.63
2018-04-09T03:29:58.290Z,1007.62
2018-04-09T03:31:19.833Z,1007.61
2018-04-09T03:32:41.624Z,1007.66
2018-04-09T03:34:03.415Z,1007.66
2018-04-09T03:35:25.229Z,1007.67
2018-04-09T03:36:46.778Z,1007.69
2018-04-09T03:38:08.065Z,1007.69
2018-04-09T03:39:29.857Z,1007.72
2018-04-09T03:40:51.405Z,1007.76
2018-04-09T03:42:12.935Z,1007.8
2018-04-09T03:45:08.056Z,1007.83
2018-04-09T03:46:29.594Z,1007.8
2018-04-09T03:47:51.652Z,1007.8
2018-04-09T03:49:13.181Z,1007.8
2018-04-09T03:50:34.465Z,1007.79
2018-04-09T03:51:56.258Z,1007.73
2018-04-09T03:53:18.054Z,1007.68
2018-04-09T03:54:40.096Z,1007.67
2018-04-09T03:56:01.901Z,1007.59
2018-04-09T03:57:23.960Z,1007.61
2018-04-09T03:58:45.759Z,1007.62
2018-04-09T04:00:07.545Z,1007.61
2018-04-09T04:01:29.365Z,1007.63
2018-04-09T04:02:51.159Z,1007.66
2018-04-09T04:04:12.946Z,1007.69
2018-04-09T04:05:34.726Z,1007.76
2018-04-09T04:06:56.634Z,1007.8
2018-04-09T04:08:18.747Z,1007.82
2018-04-09T04:09:40.294Z,1007.8
2018-04-09T04:11:02.102Z,1007.79
2018-04-09T04:12:24.162Z,1007.75
2018-04-09T04:13:46.235Z,1007.76
2018-04-09T04:15:08.038Z,1007.76
2018-04-09T04:16:29.832Z,1007.79
2018-04-09T04:17:51.368Z,1007.81
2018-04-09T04:19:13.504Z,1007.8
2018-04-09T04:20:34.774Z,1007.8
2018-04-09T04:21:56.589Z,1007.84
2018-04-09T04:23:18.393Z,1007.8
2018-04-09T04:24:40.565Z,1007.8
2018-04-09T04:26:02.099Z,1007.81
2018-04-09T04:27:23.905Z,1007.77
2018-04-09T04:29:17.057Z,1007.77
2018-04-09T04:30:39.117Z,1007.8
2018-04-09T04:32:00.403Z,1007.76
2018-04-09T04:33:22.199Z,1007.74
2018-04-09T04:34:43.765Z,1007.75
2018-04-09T04:36:05.585Z,1007.72
2018-04-09T04:37:27.116Z,1007.73
2018-04-09T04:38:48.652Z,1007.75
2018-04-09T04:40:10.720Z,1007.76
2018-04-09T04:41:32.265Z,1007.74
2018-04-09T04:42:54.330Z,1007.77
2018-04-09T04:44:16.154Z,1007.76
2018-04-09T04:45:37.690Z,1007.79
2018-04-09T04:46:59.499Z,1007.8
2018-04-09T04:48:21.300Z,1007.79
2018-04-09T04:49:43.094Z,1007.78
2018-04-09T04:51:05.158Z,1007.78
2018-04-09T04:52:26.968Z,1007.83
2018-04-09T04:53:48.758Z,1007.87
2018-04-09T04:55:10.572Z,1007.91
2018-04-09T04:56:32.114Z,1007.93
2018-04-09T04:57:53.903Z,1007.96
2018-04-09T04:59:15.981Z,1007.99
2018-04-09T05:00:37.245Z,1008.06
2018-04-09T05:01:59.090Z,1008.08
2018-04-09T05:03:21.174Z,1008.06
2018-04-09T05:04:42.976Z,1008.14
2018-04-09T05:06:04.781Z,1008.12
2018-04-09T05:07:26.580Z,1008.11
2018-04-09T05:08:48.635Z,1008.13
2018-04-09T05:10:10.177Z,1008.18
2018-04-09T05:11:31.715Z,1008.15
2018-04-09T05:12:52.728Z,1008.15
2018-04-09T05:14:14.811Z,1008.11
2018-04-09T05:15:36.865Z,1008.13
2018-04-09T05:16:58.664Z,1008.12
2018-04-09T05:18:20.742Z,1008.08
2018-04-09T05:19:42.809Z,1008.03
2018-04-09T05:21:04.339Z,1008.01
2018-04-09T05:22:26.409Z,1007.98
2018-04-09T05:23:48.488Z,1007.97
2018-04-09T05:25:10.450Z,1007.92
2018-04-09T05:26:32.259Z,1007.91
2018-04-09T05:27:54.063Z,1007.89
2018-04-09T05:29:15.877Z,1007.88
2018-04-09T05:30:37.713Z,1007.87
2018-04-09T05:31:59.792Z,1007.9
2018-04-09T05:33:21.652Z,1007.89
2018-04-09T05:34:43.728Z,1007.9
2018-04-09T05:36:05.279Z,1007.96
2018-04-09T05:37:27.089Z,1007.97
2018-04-09T05:38:48.722Z,1007.96
2018-04-09T05:40:10.837Z,1008.04
2018-04-09T05:41:32.380Z,1008.12
2018-04-09T05:42:53.931Z,1008.16
2018-04-09T05:44:15.745Z,1008.16
2018-04-09T05:45:37.569Z,1008.25
2018-04-09T05:46:59.629Z,1008.22
2018-04-09T05:48:20.891Z,1008.21
2018-04-09T05:49:42.423Z,1008.18
2018-04-09T05:51:04.218Z,1008.18
2018-04-09T05:52:25.786Z,1008.14
2018-04-09T05:53:47.324Z,1008.15
2018-04-09T05:55:09.119Z,1008.16
2018-04-09T05:56:30.675Z,1008.16
2018-04-09T05:57:52.719Z,1008.24
2018-04-09T05:59:14.783Z,1008.3
2018-04-09T06:00:36.947Z,1008.35
2018-04-09T06:01:58.213Z,1008.45
2018-04-09T06:03:20.024Z,1008.48
2018-04-09T06:04:41.571Z,1008.5
2018-04-09T06:06:03.135Z,1008.56
2018-04-09T06:07:25.223Z,1008.59
2018-04-09T06:08:46.782Z,1008.61
2018-04-09T06:10:08.599Z,1008.54
2018-04-09T06:11:30.414Z,1008.57
2018-04-09T06:12:52.211Z,1008.55
2018-04-09T06:14:14.379Z,1008.56
2018-04-09T06:15:36.566Z,1008.51
2018-04-09T06:16:58.378Z,1008.5
2018-04-09T06:18:20.191Z,1008.52
2018-04-09T06:19:42.001Z,1008.49
2018-04-09T06:21:03.793Z,1008.5
2018-04-09T06:22:25.643Z,1008.5
2018-04-09T06:23:47.728Z,1008.53
2018-04-09T06:25:09.800Z,1008.53
2018-04-09T06:26:31.873Z,1008.6
2018-04-09T06:27:53.809Z,1008.67
2018-04-09T06:29:15.360Z,1008.72
2018-04-09T06:30:36.644Z,1008.8
2018-04-09T06:31:58.462Z,1008.85
2018-04-09T06:33:20.542Z,1008.87
2018-04-09T06:34:42.102Z,1008.83
2018-04-09T06:36:04.201Z,1008.8
2018-04-09T06:37:26.032Z,1008.77
2018-04-09T06:38:47.602Z,1008.74
2018-04-09T06:40:09.143Z,1008.78
2018-04-09T06:41:30.704Z,1008.73
2018-04-09T06:42:52.774Z,1008.75
2018-04-09T06:44:14.573Z,1008.75
2018-04-09T06:45:36.654Z,1008.8
2018-04-09T06:46:58.255Z,1008.81
2018-04-09T06:48:19.818Z,1008.88
2018-04-09T06:49:41.376Z,1008.91
2018-04-09T06:51:02.668Z,1008.93
2018-04-09T06:52:24.516Z,1008.93
2018-04-09T06:53:46.609Z,1008.92
2018-04-09T06:55:08.437Z,1008.87
2018-04-09T06:56:30.265Z,1008.8
2018-04-09T06:57:52.443Z,1008.82
2018-04-09T06:59:14.517Z,1008.8
2018-04-09T07:00:36.347Z,1008.8
2018-04-09T07:01:58.166Z,1008.84
2018-04-09T07:03:20.243Z,1008.86
2018-04-09T07:04:42.059Z,1008.86
2018-04-09T07:06:03.605Z,1008.88
2018-04-09T07:07:25.162Z,1008.89
2018-04-09T07:08:46.991Z,1008.92
2018-04-09T07:10:09.104Z,1008.85
2018-04-09T07:11:31.192Z,1008.89
2018-04-09T07:12:52.226Z,1008.87
2018-04-09T07:14:14.029Z,1008.86
2018-04-09T07:15:35.880Z,1008.86
2018-04-09T07:16:58.065Z,1008.81
2018-04-09T07:18:19.637Z,1008.83
2018-04-09T07:19:41.736Z,1008.84
2018-04-09T07:21:03.325Z,1008.85
2018-04-09T07:22:25.160Z,1008.85
2018-04-09T07:23:46.972Z,1008.85
2018-04-09T07:25:09.072Z,1008.83
2018-04-09T07:26:31.187Z,1008.81
2018-04-09T07:27:53.300Z,1008.84
2018-04-09T07:29:15.123Z,1008.85
2018-04-09T07:30:37.203Z,1008.85
2018-04-09T07:31:58.783Z,1008.88
2018-04-09T07:33:20.343Z,1008.94
2018-04-09T07:34:42.432Z,1008.96
2018-04-09T07:36:04.500Z,1008.95
2018-04-09T07:37:26.634Z,1008.97
2018-04-09T07:38:48.764Z,1009.01
2018-04-09T07:40:10.593Z,1008.97
2018-04-09T07:41:32.677Z,1009.01
2018-04-09T07:42:54.766Z,1009
2018-04-09T07:44:16.866Z,1009.02
2018-04-09T07:45:38.803Z,1009.01
2018-04-09T07:47:00.366Z,1008.98
2018-04-09T07:48:22.457Z,1008.91
2018-04-09T07:49:44.295Z,1008.9
2018-04-09T07:51:06.382Z,1008.87
2018-04-09T07:52:28.481Z,1008.87
2018-04-09T07:53:50.298Z,1008.83
2018-04-09T07:55:11.861Z,1008.87
2018-04-09T07:56:33.951Z,1008.89
2018-04-09T07:57:55.783Z,1008.86
2018-04-09T07:59:17.599Z,1008.86
2018-04-09T08:00:39.678Z,1008.92
2018-04-09T08:02:01.496Z,1008.91
2018-04-09T08:03:23.314Z,1008.91
2018-04-09T08:04:45.392Z,1008.91
2018-04-09T08:06:07.496Z,1008.91
2018-04-09T08:07:29.646Z,1008.85
2018-04-09T08:08:51.727Z,1008.85
2018-04-09T08:10:13.811Z,1008.83
2018-04-09T08:11:35.638Z,1008.83
2018-04-09T08:12:57.725Z,1008.84
2018-04-09T08:14:19.873Z,1008.84
2018-04-09T08:15:41.689Z,1008.82
2018-04-09T08:17:03.786Z,1008.77
2018-04-09T08:18:25.869Z,1008.82
2018-04-09T08:19:47.966Z,1008.79
2018-04-09T08:21:10.051Z,1008.79
2018-04-09T08:22:31.875Z,1008.76
2018-04-09T08:23:53.954Z,1008.79
2018-04-09T08:25:16.052Z,1008.78
2018-04-09T08:26:37.872Z,1008.76
2018-04-09T08:27:59.688Z,1008.86
2018-04-09T08:29:21.777Z,1008.81
2018-04-09T08:30:43.854Z,1008.81
2018-04-09T08:32:05.693Z,1008.84
2018-04-09T08:33:27.505Z,1008.8
2018-04-09T08:34:49.583Z,1008.8
2018-04-09T08:36:11.683Z,1008.84
2018-04-09T08:37:33.535Z,1008.82
2018-04-09T08:38:55.360Z,1008.81
2018-04-09T08:40:17.450Z,1008.86
2018-04-09T08:41:39.542Z,1008.78
2018-04-09T08:43:01.639Z,1008.83
2018-04-09T08:44:23.734Z,1008.86
2018-04-09T08:45:45.566Z,1008.86
2018-04-09T08:47:07.663Z,1008.9
2018-04-09T08:48:29.761Z,1008.91
2018-04-09T08:49:51.831Z,1008.9
2018-04-09T08:51:13.946Z,1008.88
2018-04-09T08:52:36.040Z,1008.93
2018-04-09T08:53:58.164Z,1008.91
2018-04-09T08:55:20.015Z,1008.86
2018-04-09T08:56:42.237Z,1008.81
2018-04-09T08:58:04.056Z,1008.84
2018-04-09T08:59:25.882Z,1008.83
2018-04-09T09:00:47.971Z,1008.81
2018-04-09T09:02:10.054Z,1008.81
2018-04-09T09:03:31.879Z,1008.79
2018-04-09T09:04:53.984Z,1008.79
2018-04-09T09:06:16.083Z,1008.81
2018-04-09T09:07:38.147Z,1008.79
2018-04-09T09:08:59.996Z,1008.83
2018-04-09T09:10:21.567Z,1008.88
2018-04-09T09:11:43.639Z,1008.82
2018-04-09T09:13:05.473Z,1008.86
2018-04-09T09:14:27.549Z,1008.8
2018-04-09T09:15:49.635Z,1008.83
2018-04-09T09:17:11.694Z,1008.79
2018-04-09T09:18:33.519Z,1008.77
2018-04-09T09:19:55.352Z,1008.8
2018-04-09T09:21:17.446Z,1008.8
2018-04-09T09:22:39.582Z,1008.75
2018-04-09T09:24:01.128Z,1008.74
2018-04-09T09:25:22.925Z,1008.83
2018-04-09T09:26:44.994Z,1008.8
2018-04-09T09:28:07.102Z,1008.78
2018-04-09T09:29:29.244Z,1008.72
2018-04-09T09:30:51.067Z,1008.78
2018-04-09T09:32:12.885Z,1008.77
2018-04-09T09:33:34.438Z,1008.78
2018-04-09T09:34:55.986Z,1008.79
2018-04-09T09:36:18.073Z,1008.73
2018-04-09T09:37:39.616Z,1008.75
2018-04-09T09:39:01.704Z,1008.76
2018-04-09T09:40:23.794Z,1008.73
2018-04-09T09:41:45.370Z,1008.73
2018-04-09T09:43:07.456Z,1008.73
2018-04-09T09:44:29.608Z,1008.66
2018-04-09T09:45:51.699Z,1008.68
2018-04-09T09:47:13.514Z,1008.65
2018-04-09T09:48:35.586Z,1008.66
2018-04-09T09:49:57.132Z,1008.67
2018-04-09T09:51:18.688Z,1008.62
2018-04-09T09:52:40.506Z,1008.66
2018-04-09T09:54:02.589Z,1008.65
2018-04-09T09:55:24.683Z,1008.66
2018-04-09T09:56:46.494Z,1008.66
2018-04-09T09:58:08.569Z,1008.69
2018-04-09T09:59:30.646Z,1008.71
2018-04-09T10:00:52.205Z,1008.74
2018-04-09T10:02:14.041Z,1008.73
2018-04-09T10:03:36.117Z,1008.68
2018-04-09T10:04:58.193Z,1008.7
2018-04-09T10:06:20.009Z,1008.63
2018-04-09T10:07:41.579Z,1008.67
2018-04-09T10:09:03.929Z,1008.72
2018-04-09T10:10:26.004Z,1008.72
2018-04-09T10:11:48.080Z,1008.8
2018-04-09T10:13:09.885Z,1008.74
2018-04-09T10:14:31.966Z,1008.77
2018-04-09T10:15:54.059Z,1008.77
2018-04-09T10:17:16.144Z,1008.68
2018-04-09T10:18:37.708Z,1008.7
2018-04-09T10:19:59.546Z,1008.66
2018-04-09T10:21:21.413Z,1008.69
2018-04-09T10:22:42.698Z,1008.61
2018-04-09T10:24:04.532Z,1008.63
2018-04-09T10:25:25.556Z,1008.63
2018-04-09T10:26:47.178Z,1008.64
2018-04-09T10:28:09.008Z,1008.6
2018-04-09T10:29:30.596Z,1008.56
2018-04-09T10:30:52.152Z,1008.54
2018-04-09T10:32:14.235Z,1008.63
2018-04-09T10:33:36.055Z,1008.66
2018-04-09T10:34:58.163Z,1008.66
2018-04-09T10:36:20.272Z,1008.63
2018-04-09T10:37:42.099Z,1008.67
2018-04-09T10:39:03.911Z,1008.67
2018-04-09T10:40:25.796Z,1008.69
2018-04-09T10:41:47.614Z,1008.64
2018-04-09T10:43:09.681Z,1008.63
2018-04-09T10:44:31.826Z,1008.6
2018-04-09T10:45:53.649Z,1008.53
2018-04-09T10:47:15.734Z,1008.46
2018-04-09T10:48:37.542Z,1008.44
2018-04-09T10:49:59.625Z,1008.46
2018-04-09T10:51:21.512Z,1008.43
2018-04-09T10:52:43.594Z,1008.43
2018-04-09T10:54:05.687Z,1008.48
2018-04-09T10:55:27.766Z,1008.45
2018-04-09T10:56:49.708Z,1008.48
2018-04-09T10:58:11.532Z,1008.44
2018-04-09T10:59:33.355Z,1008.49
2018-04-09T11:00:55.179Z,1008.46
2018-04-09T11:02:17.294Z,1008.4
2018-04-09T11:03:38.620Z,1008.36
2018-04-09T11:05:00.889Z,1008.42
2018-04-09T11:06:22.999Z,1008.38
2018-04-09T11:07:44.852Z,1008.37
2018-04-09T11:09:06.916Z,1008.34
2018-04-09T11:10:29.015Z,1008.43
2018-04-09T11:11:50.782Z,1008.31
2018-04-09T11:13:12.621Z,1008.3
2018-04-09T11:14:34.706Z,1008.27
2018-04-09T11:15:56.533Z,1008.23
2018-04-09T11:17:18.089Z,1008.26
2018-04-09T11:18:39.642Z,1008.28
2018-04-09T11:20:01.502Z,1008.32
2018-04-09T11:21:22.818Z,1008.26
2018-04-09T11:22:44.633Z,1008.22
2018-04-09T11:24:06.731Z,1008.27
2018-04-09T11:25:28.834Z,1008.2
2018-04-09T11:26:49.854Z,1008.3
2018-04-09T11:28:11.691Z,1008.23
2018-04-09T11:29:33.272Z,1008.24
2018-04-09T11:30:55.371Z,1008.23
2018-04-09T11:32:16.928Z,1008.13
2018-04-09T11:33:38.750Z,1008.11
2018-04-09T11:35:00.601Z,1008.07
2018-04-09T11:36:21.903Z,1008.13
2018-04-09T11:37:49.722Z,1008.13
2018-04-09T11:39:11.811Z,1008.09
2018-04-09T11:40:33.881Z,1008.07
2018-04-09T11:41:55.962Z,1008.08
2018-04-09T11:43:18.026Z,1008.04
2018-04-09T11:44:39.848Z,1008.06
2018-04-09T11:46:01.909Z,1008.09
2018-04-09T11:47:23.482Z,1008.01
2018-04-09T11:48:45.062Z,1007.96
2018-04-09T11:50:06.599Z,1007.99
2018-04-09T11:51:28.141Z,1007.95
2018-04-09T11:52:49.951Z,1007.9
2018-04-09T11:54:11.772Z,1007.88
2018-04-09T11:55:33.322Z,1007.95
2018-04-09T11:56:55.402Z,1007.88
2018-04-09T11:58:16.688Z,1007.83
2018-04-09T11:59:37.982Z,1007.82
2018-04-09T12:00:59.521Z,1007.77
2018-04-09T12:02:21.345Z,1007.85
2018-04-09T12:03:42.642Z,1007.84
2018-04-09T12:05:04.714Z,1007.87
2018-04-09T12:06:26.530Z,1007.78
2018-04-09T12:07:48.337Z,1007.79
2018-04-09T12:09:09.932Z,1007.72
2018-04-09T12:10:31.759Z,1007.65
2018-04-09T12:11:53.599Z,1007.6
2018-04-09T12:13:15.679Z,1007.55
2018-04-09T12:14:36.970Z,1007.56
2018-04-09T12:15:58.509Z,1007.56
2018-04-09T12:17:20.601Z,1007.59
2018-04-09T12:18:42.708Z,1007.54
2018-04-09T12:20:04.525Z,1007.55
2018-04-09T12:21:26.603Z,1007.51
2018-04-09T12:22:48.692Z,1007.43
2018-04-09T12:24:10.781Z,1007.46
2018-04-09T12:25:32.889Z,1007.38
2018-04-09T12:26:54.992Z,1007.36
2018-04-09T12:28:17.063Z,1007.32
2018-04-09T12:29:38.878Z,1007.28
2018-04-09T12:31:00.972Z,1007.33
2018-04-09T12:32:22.803Z,1007.34
2018-04-09T12:33:44.625Z,1007.3
2018-04-09T12:35:06.491Z,1007.41
2018-04-09T12:36:28.313Z,1007.42
2018-04-09T12:37:50.403Z,1007.41
2018-04-09T12:39:12.223Z,1007.37
2018-04-09T12:40:34.057Z,1007.39
2018-04-09T12:41:55.677Z,1007.38
2018-04-09T12:43:17.244Z,1007.42
2018-04-09T12:44:39.046Z,1007.47
2018-04-09T12:46:01.116Z,1007.39
2018-04-09T12:47:23.225Z,1007.37
2018-04-09T12:48:45.365Z,1007.39
2018-04-09T12:50:06.930Z,1007.39
2018-04-09T12:51:28.760Z,1007.34
2018-04-09T12:52:50.873Z,1007.34
2018-04-09T12:54:13.046Z,1007.3
2018-04-09T12:55:34.862Z,1007.3
2018-04-09T12:56:56.687Z,1007.4
2018-04-09T12:58:18.774Z,1007.29
2018-04-09T12:59:40.601Z,1007.32
2018-04-09T13:02:23.644Z,1007.32
2018-04-09T13:03:45.718Z,1007.32
2018-04-09T13:05:07.853Z,1007.31
2018-04-09T13:06:29.970Z,1007.29
2018-04-09T13:07:51.535Z,1007.27
2018-04-09T13:09:13.643Z,1007.26
2018-04-09T13:10:35.748Z,1007.25
2018-04-09T13:11:57.843Z,1007.29
2018-04-09T13:13:19.943Z,1007.27
2018-04-09T13:14:41.773Z,1007.35
2018-04-09T13:16:03.869Z,1007.28
2018-04-09T13:17:25.456Z,1007.21
2018-04-09T13:18:47.539Z,1007.23
2018-04-09T13:20:09.636Z,1007.24
2018-04-09T13:21:31.517Z,1007.24
2018-04-09T13:22:53.137Z,1007.24
2018-04-09T13:24:15.249Z,1007.22
2018-04-09T13:25:37.335Z,1007.21
2018-04-09T13:26:59.405Z,1007.22
2018-04-09T13:28:21.196Z,1007.24
2018-04-09T13:29:43.286Z,1007.22
2018-04-09T13:31:05.413Z,1007.22
2018-04-09T13:32:27.510Z,1007.19
2018-04-09T13:33:49.619Z,1007.19
2018-04-09T13:35:11.463Z,1007.22
2018-04-09T13:36:33.657Z,1007.18
2018-04-09T13:37:55.785Z,1007.15
2018-04-09T13:39:17.897Z,1007.15
2018-04-09T13:40:40.001Z,1007.15
2018-04-09T13:42:01.821Z,1007.16
2018-04-09T13:43:23.709Z,1007.11
2018-04-09T13:44:45.792Z,1007.17
2018-04-09T13:46:07.878Z,1007.17
2018-04-09T13:47:29.717Z,1007.12
2018-04-09T13:48:51.610Z,1007.13
2018-04-09T13:50:13.695Z,1007.11
2018-04-09T13:51:35.790Z,1007.08
2018-04-09T13:52:57.354Z,1007.07
2018-04-09T13:54:19.498Z,1007.11
2018-04-09T13:55:41.592Z,1007.08
2018-04-09T13:57:03.692Z,1007.06
2018-04-09T13:58:25.790Z,1007.06
2018-04-09T13:59:47.879Z,1007.04
2018-04-09T14:01:09.989Z,1007.03
2018-04-09T14:02:31.837Z,1007.07
2018-04-09T14:03:53.928Z,1007.12
2018-04-09T14:05:15.241Z,1007.07
2018-04-09T14:06:37.348Z,1007.07
2018-04-09T14:07:59.447Z,1007.01
2018-04-09T14:09:21.285Z,1007.01
2018-04-09T14:10:43.121Z,1007
2018-04-09T14:12:05.186Z,1007
2018-04-09T14:13:27.286Z,1007.02
2018-04-09T14:14:49.112Z,1007
2018-04-09T14:16:11.205Z,1007
2018-04-09T14:17:33.359Z,1006.99
2018-04-09T14:18:55.473Z,1006.95
2018-04-09T14:20:17.303Z,1006.99
2018-04-09T14:21:39.417Z,1006.99
2018-04-09T14:23:01.497Z,1006.94
2018-04-09T14:24:23.060Z,1006.96
2018-04-09T14:25:45.160Z,1006.93
2018-04-09T14:27:06.481Z,1006.9
2018-04-09T14:28:28.588Z,1006.9
2018-04-09T14:29:50.703Z,1006.82
2018-04-09T14:31:12.786Z,1006.88
2018-04-09T14:32:34.901Z,1006.84
2018-04-09T14:33:56.751Z,1006.82
2018-04-09T14:35:18.934Z,1006.79
2018-04-09T14:36:41.025Z,1006.84
2018-04-09T14:38:02.577Z,1006.83
2018-04-09T14:39:24.163Z,1006.81
2018-04-09T14:40:45.982Z,1006.8
2018-04-09T14:42:07.809Z,1006.83
2018-04-09T14:43:29.649Z,1006.82
2018-04-09T14:44:51.746Z,1006.81
2018-04-09T14:46:13.586Z,1006.73
2018-04-09T14:47:35.680Z,1006.75
2018-04-09T14:48:57.810Z,1006.76
2018-04-09T14:50:19.916Z,1006.74
2018-04-09T14:51:41.767Z,1006.75
2018-04-09T14:53:03.917Z,1006.75
2018-04-09T14:54:26.036Z,1006.73
2018-04-09T14:55:47.869Z,1006.72
2018-04-09T14:57:09.684Z,1006.7
2018-04-09T14:58:31.248Z,1006.65
2018-04-09T14:59:53.074Z,1006.62
2018-04-09T15:01:14.898Z,1006.6
2018-04-09T15:02:36.993Z,1006.57
2018-04-09T15:03:59.096Z,1006.56
2018-04-09T15:05:20.674Z,1006.6
2018-04-09T15:06:42.790Z,1006.5
2018-04-09T15:08:04.617Z,1006.52
2018-04-09T15:09:26.742Z,1006.54
2018-04-09T15:10:48.840Z,1006.54
2018-04-09T15:12:10.685Z,1006.55
2018-04-09T15:13:32.528Z,1006.51
2018-04-09T15:14:54.657Z,1006.46
2018-04-09T15:16:16.745Z,1006.5
2018-04-09T15:17:38.870Z,1006.48
2018-04-09T15:19:00.431Z,1006.51
2018-04-09T15:20:22.333Z,1006.48
2018-04-09T15:21:44.254Z,1006.51
2018-04-09T15:23:06.383Z,1006.54
2018-04-09T15:24:27.948Z,1006.6
2018-04-09T15:25:50.147Z,1006.54
2018-04-09T15:27:12.293Z,1006.57
2018-04-09T15:28:34.425Z,1006.57
2018-04-09T15:29:56.527Z,1006.52
2018-04-09T15:31:18.386Z,1006.5
2018-04-09T15:32:40.557Z,1006.5
2018-04-09T15:34:02.679Z,1006.5
2018-04-09T15:35:24.861Z,1006.48
2018-04-09T15:36:47.012Z,1006.45
2018-04-09T15:38:09.103Z,1006.46
2018-04-09T15:39:31.221Z,1006.44
2018-04-09T15:40:52.545Z,1006.49
2018-04-09T15:42:14.393Z,1006.48
2018-04-09T15:43:36.247Z,1006.5
2018-04-09T15:44:58.378Z,1006.51
2018-04-09T15:46:20.523Z,1006.53
2018-04-09T15:47:42.688Z,1006.53
2018-04-09T15:49:04.878Z,1006.51
2018-04-09T15:50:26.986Z,1006.48
2018-04-09T15:51:49.102Z,1006.49
2018-04-09T15:53:11.207Z,1006.44
2018-04-09T15:54:33.343Z,1006.41
2018-04-09T15:55:55.554Z,1006.38
2018-04-09T15:57:17.659Z,1006.39
2018-04-09T15:58:39.776Z,1006.39
2018-04-09T16:00:01.864Z,1006.37
2018-04-09T16:01:24.036Z,1006.37
2018-04-09T16:02:45.643Z,1006.39
2018-04-09T16:04:07.748Z,1006.34
2018-04-09T16:05:29.858Z,1006.34
2018-04-09T16:06:52.000Z,1006.33
2018-04-09T16:08:13.846Z,1006.3
2018-04-09T16:09:35.961Z,1006.26
2018-04-09T16:10:58.088Z,1006.2
2018-04-09T16:12:20.229Z,1006.21
2018-04-09T16:13:42.347Z,1006.2
2018-04-09T16:15:04.212Z,1006.19
2018-04-09T16:16:26.336Z,1006.24
2018-04-09T16:17:48.429Z,1006.26
2018-04-09T16:19:10.293Z,1006.22
2018-04-09T16:20:32.416Z,1006.24
2018-04-09T16:21:54.522Z,1006.19
2018-04-09T16:23:16.657Z,1006.23
2018-04-09T16:24:38.835Z,1006.21
2018-04-09T16:26:00.981Z,1006.21
2018-04-09T16:27:22.806Z,1006.22
2018-04-09T16:28:44.880Z,1006.2
2018-04-09T16:30:07.014Z,1006.19
2018-04-09T16:31:29.136Z,1006.13
2018-04-09T16:32:50.966Z,1006.15
2018-04-09T16:34:13.118Z,1006.09
2018-04-09T16:35:34.942Z,1006.08
2018-04-09T16:36:57.058Z,1006.09
2018-04-09T16:38:19.188Z,1006.05
2018-04-09T16:39:41.284Z,1006.05